Time;durP1;ratioP1;P1;durP2;ratioP2;P2;SDS_P1;SDS_P2;PMS_P1;PMS_P2;Temp;Humidity;BMP_temperature;BMP_pressure;BME280_temperature;BME280_humidity;BME280_pressure;Samples;Min_cycle;Max_cycle;Signal;HPM_P1;HPM_P2
2022/04/27 00:00:42;;;;;;;;;3.00;3.00;18.60;99.90;;;;;;5071467;28;9228;-42
2022/04/27 00:03:14;;;;;;;;;2.00;2.00;18.60;99.90;;;;;;5050428;28;9080;-45
2022/04/27 00:05:46;;;;;;;;;3.00;3.00;18.70;99.90;;;;;;5066235;28;9241;-53
2022/04/27 00:08:16;;;;;;;;;3.00;3.00;18.80;99.90;;;;;;5061734;28;9062;-52
2022/04/27 00:10:47;;;;;;;;;3.33;2.00;18.80;99.90;;;;;;5050404;28;9073;-49
2022/04/27 00:13:17;;;;;;;;;2.00;2.00;18.80;99.90;;;;;;5069614;28;9155;-51
2022/04/27 00:15:48;;;;;;;;;5.67;5.00;18.80;99.90;;;;;;5067626;28;9066;-52
2022/04/27 00:18:18;;;;;;;;;3.00;3.00;18.70;99.90;;;;;;5065898;28;9523;-52
2022/04/27 00:20:50;;;;;;;;;3.00;3.00;18.70;99.90;;;;;;5059148;28;9388;-53
2022/04/27 00:23:21;;;;;;;;;4.00;4.00;18.70;99.90;;;;;;5054891;28;9368;-43
2022/04/27 00:25:53;;;;;;;;;3.00;3.00;18.70;99.90;;;;;;5061794;28;9546;-44
2022/04/27 00:28:24;;;;;;;;;2.00;2.00;18.60;99.90;;;;;;5066833;28;9500;-52
2022/04/27 00:30:55;;;;;;;;;2.67;2.67;18.50;99.90;;;;;;5030853;28;9501;-52
2022/04/27 00:33:27;;;;;;;;;2.00;2.00;18.50;99.90;;;;;;5053002;28;9653;-52
2022/04/27 00:35:57;;;;;;;;;3.00;3.00;18.40;99.90;;;;;;5078004;28;9534;-48
2022/04/27 00:38:27;;;;;;;;;3.00;3.00;18.40;99.90;;;;;;5077340;28;9689;-42
2022/04/27 00:40:58;;;;;;;;;3.00;3.00;18.40;99.90;;;;;;5072662;28;9841;-42
2022/04/27 00:43:36;;;;;;;;;3.00;3.00;18.30;99.90;;;;;;5064973;28;9675;-52
2022/04/27 00:46:09;;;;;;;;;4.00;3.25;18.20;99.90;;;;;;5071572;28;9658;-49
2022/04/27 00:48:41;;;;;;;;;5.00;5.00;18.20;99.90;;;;;;5058801;28;9709;-45
2022/04/27 00:51:20;;;;;;;;;2.00;2.00;18.10;99.90;;;;;;5066555;28;9822;-45
2022/04/27 00:53:52;;;;;;;;;3.00;2.25;18.10;99.90;;;;;;5069897;28;9806;-51
2022/04/27 00:56:25;;;;;;;;;2.50;2.50;18.10;99.90;;;;;;5068723;28;9755;-51
2022/04/27 00:58:57;;;;;;;;;5.00;3.50;18.10;99.90;;;;;;5066357;28;9936;-47
2022/04/27 01:01:28;;;;;;;;;3.75;2.75;18.10;99.90;;;;;;5070412;28;9835;-45
2022/04/27 01:03:58;;;;;;;;;4.00;4.00;18.00;99.90;;;;;;5076209;28;10109;-52
2022/04/27 01:06:30;;;;;;;;;3.25;3.25;17.90;99.90;;;;;;5062645;28;10149;-52
2022/04/27 01:09:01;;;;;;;;;6.25;3.75;17.90;99.90;;;;;;5040186;28;10256;-47
2022/04/27 01:11:34;;;;;;;;;4.75;4.75;17.90;99.90;;;;;;5047607;28;10461;-47
2022/04/27 01:14:06;;;;;;;;;1.50;1.50;17.90;99.90;;;;;;5052189;28;10447;-44
2022/04/27 01:16:37;;;;;;;;;3.50;3.50;17.90;99.90;;;;;;5067382;28;10447;-42
2022/04/27 01:19:08;;;;;;;;;1.75;1.75;17.80;99.90;;;;;;5065584;28;10210;-44
2022/04/27 01:21:39;;;;;;;;;3.50;3.50;17.70;99.90;;;;;;5045835;28;10236;-45
2022/04/27 01:24:13;;;;;;;;;2.50;2.50;17.60;99.90;;;;;;5068628;28;10236;-46
2022/04/27 01:26:43;;;;;;;;;2.25;2.00;17.60;99.90;;;;;;5053035;28;9944;-45
2022/04/27 01:29:16;;;;;;;;;5.50;2.25;17.70;99.90;;;;;;5047629;28;10976;-53
2022/04/27 01:31:47;;;;;;;;;4.50;2.25;17.70;99.90;;;;;;5045951;28;10139;-53
2022/04/27 01:34:19;;;;;;;;;2.25;2.25;17.70;99.90;;;;;;5065431;28;10147;-44
2022/04/27 01:36:50;;;;;;;;;2.50;2.50;17.60;99.90;;;;;;5058290;28;9987;-44
2022/04/27 01:39:23;;;;;;;;;3.00;3.00;17.60;99.90;;;;;;5048423;28;10166;-45
2022/04/27 01:41:55;;;;;;;;;2.00;2.00;17.60;99.90;;;;;;5068841;28;10027;-44
2022/04/27 01:44:27;;;;;;;;;1.75;1.75;17.60;99.90;;;;;;5058101;28;10148;-51
2022/04/27 01:47:00;;;;;;;;;1.00;1.00;17.50;99.90;;;;;;5037164;28;10220;-52
2022/04/27 01:49:32;;;;;;;;;2.00;2.00;17.50;99.90;;;;;;5072288;28;10464;-44
2022/04/27 01:54:51;;;;;;;;;3.00;3.00;17.30;99.90;;;;;;5046073;28;10316;-52
2022/04/27 01:57:23;;;;;;;;;2.50;2.50;17.30;99.90;;;;;;5043446;28;10791;-53
2022/04/27 01:59:56;;;;;;;;;4.75;3.25;17.30;99.90;;;;;;5053542;28;10771;-53
2022/04/27 02:02:27;;;;;;;;;3.25;3.25;17.20;99.90;;;;;;5048798;28;11125;-53
2022/04/27 02:05:00;;;;;;;;;5.75;4.25;17.20;99.90;;;;;;5045856;28;11112;-42
2022/04/27 02:07:33;;;;;;;;;5.00;5.00;17.20;99.90;;;;;;5060876;28;11154;-44
2022/04/27 02:10:06;;;;;;;;;6.50;6.50;17.10;99.90;;;;;;5051776;28;11449;-52
2022/04/27 02:12:41;;;;;;;;;11.00;11.00;17.00;99.90;;;;;;5053764;28;11434;-53
2022/04/27 02:15:23;;;;;;;;;14.00;12.50;17.10;99.90;;;;;;5055439;28;11803;-54
2022/04/27 02:18:08;;;;;;;;;13.50;13.50;17.10;99.90;;;;;;5057961;28;11007;-53
2022/04/27 02:20:38;;;;;;;;;19.00;18.75;17.10;99.90;;;;;;5051740;28;11508;-53
2022/04/27 02:23:10;;;;;;;;;18.50;18.50;17.00;99.90;;;;;;5046162;28;11491;-50
2022/04/27 02:25:41;;;;;;;;;15.75;15.75;17.00;99.90;;;;;;5048706;28;11533;-43
2022/04/27 02:28:11;;;;;;;;;13.00;13.00;16.90;99.90;;;;;;5047472;28;11553;-43
2022/04/27 02:30:42;;;;;;;;;16.25;16.25;16.90;99.90;;;;;;5066478;28;11507;-50
2022/04/27 02:33:13;;;;;;;;;20.25;17.25;16.80;99.90;;;;;;5050147;28;11464;-49
2022/04/27 02:35:44;;;;;;;;;19.00;19.00;16.80;99.90;;;;;;5053688;28;12499;-42
2022/04/27 02:38:14;;;;;;;;;19.50;19.50;16.80;99.90;;;;;;5049037;28;11487;-43
2022/04/27 02:40:45;;;;;;;;;19.75;19.75;16.80;99.90;;;;;;5056105;28;11494;-48
2022/04/27 02:43:17;;;;;;;;;22.25;22.25;16.80;99.90;;;;;;5056852;28;11523;-49
2022/04/27 02:45:49;;;;;;;;;12.50;11.00;16.70;99.90;;;;;;5040356;28;11481;-49
2022/04/27 02:48:22;;;;;;;;;3.00;3.00;16.70;99.90;;;;;;5055345;28;11530;-50
2022/04/27 02:53:42;;;;;;;;;3.00;3.00;16.70;99.90;;;;;;5055382;28;10721;-51
2022/04/27 02:56:15;;;;;;;;;3.00;3.00;16.60;99.90;;;;;;5064828;28;10664;-52
2022/04/27 02:58:46;;;;;;;;;2.00;2.00;16.60;99.90;;;;;;5073388;28;10453;-49
2022/04/27 03:01:16;;;;;;;;;4.25;4.25;16.60;99.90;;;;;;5052401;28;11001;-48
2022/04/27 03:03:47;;;;;;;;;2.50;2.50;16.50;99.90;;;;;;5047902;28;11454;-43
2022/04/27 03:06:18;;;;;;;;;3.00;3.00;16.50;99.90;;;;;;5052380;28;10675;-42
2022/04/27 03:08:50;;;;;;;;;4.00;2.00;16.50;99.90;;;;;;5046579;28;11469;-50
2022/04/27 03:11:21;;;;;;;;;2.00;2.00;16.50;99.90;;;;;;5047544;28;10930;-54
2022/04/27 03:14:19;;;;;;;;;4.75;4.25;16.50;99.90;;;;;;5063066;28;10711;-44
2022/04/27 03:16:52;;;;;;;;;3.00;3.00;16.40;99.90;;;;;;5046172;28;10564;-44
2022/04/27 03:19:24;;;;;;;;;5.00;3.50;16.40;99.90;;;;;;5061852;28;10739;-49
2022/04/27 03:21:54;;;;;;;;;4.00;4.00;16.30;99.90;;;;;;5053772;28;10819;-51
2022/04/27 03:24:27;;;;;;;;;2.00;2.00;16.30;99.90;;;;;;5050632;28;10784;-50
2022/04/27 03:27:07;;;;;;;;;5.00;3.25;16.30;99.90;;;;;;5053942;28;11521;-52
2022/04/27 03:29:37;;;;;;;;;5.25;3.75;16.20;99.90;;;;;;5053525;28;10878;-43
2022/04/27 03:32:10;;;;;;;;;4.75;3.25;16.20;99.90;;;;;;5060794;28;10843;-43
2022/04/27 03:34:46;;;;;;;;;4.00;2.00;16.20;99.90;;;;;;5062380;28;10802;-52
2022/04/27 03:37:16;;;;;;;;;2.25;2.25;16.20;99.90;;;;;;5047545;28;10882;-50
2022/04/27 03:39:49;;;;;;;;;2.00;2.00;16.10;99.90;;;;;;5044260;28;10812;-53
2022/04/27 03:42:21;;;;;;;;;2.50;2.50;16.10;99.90;;;;;;5049596;28;10781;-53
2022/04/27 03:45:00;;;;;;;;;3.75;3.75;16.10;99.90;;;;;;5063884;28;10795;-43
2022/04/27 03:47:37;;;;;;;;;4.00;2.50;16.00;99.90;;;;;;5051454;28;10877;-43
2022/04/27 03:50:09;;;;;;;;;5.25;3.75;15.90;99.90;;;;;;5053381;28;10797;-43
2022/04/27 03:52:46;;;;;;;;;8.25;3.75;15.90;99.90;;;;;;5060105;28;11570;-42
2022/04/27 03:55:16;;;;;;;;;2.25;2.25;15.90;99.90;;;;;;5054222;28;11396;-43
2022/04/27 03:57:49;;;;;;;;;3.25;3.25;15.90;99.90;;;;;;5074949;28;10929;-45
2022/04/27 04:00:22;;;;;;;;;5.75;4.50;15.80;99.90;;;;;;5061419;28;10771;-50
2022/04/27 04:03:04;;;;;;;;;2.00;2.00;15.80;99.90;;;;;;5059593;28;11157;-50
2022/04/27 04:05:43;;;;;;;;;3.00;3.00;15.80;99.90;;;;;;5061541;28;10874;-45
2022/04/27 04:08:14;;;;;;;;;4.00;2.00;15.80;99.90;;;;;;5058963;28;11683;-44
2022/04/27 04:10:46;;;;;;;;;4.00;4.00;15.80;99.90;;;;;;5056702;28;10892;-43
2022/04/27 04:13:17;;;;;;;;;3.00;3.00;15.70;99.90;;;;;;5055170;28;10979;-43
2022/04/27 04:16:03;;;;;;;;;3.25;3.25;15.70;99.90;;;;;;5071216;28;10717;-43
2022/04/27 04:18:41;;;;;;;;;2.00;2.00;15.70;99.90;;;;;;5056725;28;10718;-44
2022/04/27 04:21:21;;;;;;;;;2.75;2.75;15.70;99.90;;;;;;5050755;28;10746;-44
2022/04/27 04:24:06;;;;;;;;;2.75;2.75;15.60;99.90;;;;;;5055104;28;10950;-49
2022/04/27 04:29:33;;;;;;;;;3.25;2.75;15.50;99.90;;;;;;5055813;28;11787;-51
2022/04/27 04:32:05;;;;;;;;;3.00;2.00;15.50;99.90;;;;;;5058522;28;11446;-49
2022/04/27 04:35:09;;;;;;;;;3.50;2.00;15.50;99.90;;;;;;5020393;28;11890;-44
2022/04/27 04:37:39;;;;;;;;;2.50;2.50;15.50;99.90;;;;;;5043844;28;11012;-43
2022/04/27 04:40:11;;;;;;;;;3.00;3.00;15.40;99.90;;;;;;5050027;28;11153;-53
2022/04/27 04:42:42;;;;;;;;;3.50;3.00;15.40;99.90;;;;;;5051582;28;11222;-52
2022/04/27 04:45:14;;;;;;;;;2.75;0.50;15.40;99.90;;;;;;5056619;28;11130;-46
2022/04/27 04:48:05;;;;;;;;;4.75;4.75;15.30;99.90;;;;;;5069725;28;11182;-44
2022/04/27 04:50:52;;;;;;;;;2.50;2.50;15.30;99.90;;;;;;5041171;28;11134;-51
2022/04/27 04:53:46;;;;;;;;;3.25;3.25;15.30;99.90;;;;;;5069671;28;11507;-45
2022/04/27 04:56:27;;;;;;;;;2.25;2.25;15.30;99.90;;;;;;5048700;28;11076;-45
2022/04/27 04:59:16;;;;;;;;;4.00;2.25;15.20;99.90;;;;;;5059266;28;10906;-45
2022/04/27 05:02:10;;;;;;;;;2.00;2.00;15.20;99.90;;;;;;5067607;28;11002;-46
2022/04/27 05:05:04;;;;;;;;;5.00;4.00;15.20;99.90;;;;;;5073228;28;10942;-52
2022/04/27 05:07:52;;;;;;;;;3.75;3.75;15.20;99.90;;;;;;5066629;28;11401;-53
2022/04/27 05:10:50;;;;;;;;;3.25;3.25;15.10;99.90;;;;;;5051634;28;11199;-44
2022/04/27 05:13:39;;;;;;;;;3.00;3.00;15.10;99.90;;;;;;5069659;28;11566;-45
2022/04/27 05:16:38;;;;;;;;;3.75;2.25;15.10;99.90;;;;;;5053593;28;11046;-44
2022/04/27 05:19:40;;;;;;;;;5.75;5.75;15.00;99.90;;;;;;5068113;28;11987;-44
2022/04/27 05:22:34;;;;;;;;;3.00;3.00;15.00;99.90;;;;;;5066194;28;11444;-44
2022/04/27 05:25:25;;;;;;;;;2.75;2.75;15.00;99.90;;;;;;5047939;28;11517;-50
2022/04/27 05:28:13;;;;;;;;;3.75;2.75;14.90;99.90;;;;;;5076900;28;10993;-55
2022/04/27 05:34:10;;;;;;;;;2.50;2.50;14.90;99.90;;;;;;5076162;28;11394;-44
2022/04/27 05:36:52;;;;;;;;;4.50;2.50;14.80;99.90;;;;;;5055844;28;10954;-45
2022/04/27 05:39:45;;;;;;;;;3.00;3.00;14.90;99.90;;;;;;5061763;28;11450;-52
2022/04/27 05:42:39;;;;;;;;;2.00;2.00;14.90;99.90;;;;;;5040057;28;11477;-50
2022/04/27 05:45:23;;;;;;;;;3.00;3.00;14.90;99.90;;;;;;5055003;28;11100;-50
2022/04/27 05:48:15;;;;;;;;;2.00;2.00;14.80;99.90;;;;;;5073543;28;12177;-50
2022/04/27 05:51:07;;;;;;;;;2.50;2.50;14.80;99.90;;;;;;5038441;28;11394;-51
2022/04/27 05:53:53;;;;;;;;;3.75;3.00;14.80;99.90;;;;;;5058791;28;11446;-54
2022/04/27 05:56:53;;;;;;;;;1.00;0.50;14.80;99.90;;;;;;5039273;28;11400;-53
2022/04/27 06:00:02;;;;;;;;;2.75;1.00;14.80;99.90;;;;;;5071888;28;11425;-50
2022/04/27 06:02:48;;;;;;;;;2.00;2.00;14.70;99.90;;;;;;5054517;28;11208;-52
2022/04/27 06:05:25;;;;;;;;;3.25;2.75;14.70;99.90;;;;;;5067836;28;11444;-43
2022/04/27 06:07:57;;;;;;;;;2.00;2.00;14.70;99.90;;;;;;5051266;28;11428;-44
2022/04/27 06:10:28;;;;;;;;;3.25;3.25;14.60;99.90;;;;;;5044439;28;11381;-44
2022/04/27 06:13:01;;;;;;;;;2.50;2.50;14.60;99.90;;;;;;5051342;28;12238;-43
2022/04/27 06:15:58;;;;;;;;;4.25;2.75;14.60;99.90;;;;;;5043000;28;11392;-45
2022/04/27 06:18:40;;;;;;;;;4.00;2.75;14.60;99.90;;;;;;5047675;28;11441;-43
2022/04/27 06:21:14;;;;;;;;;1.00;1.00;14.50;99.90;;;;;;5040132;28;11459;-43
2022/04/27 06:23:46;;;;;;;;;3.75;2.75;14.50;99.90;;;;;;5081336;28;11398;-44
2022/04/27 06:26:18;;;;;;;;;2.75;2.75;14.50;99.90;;;;;;5055365;28;11416;-44
2022/04/27 06:28:50;;;;;;;;;3.00;3.00;14.50;99.90;;;;;;5051316;28;12132;-43
2022/04/27 06:31:21;;;;;;;;;3.50;3.50;14.50;99.90;;;;;;5058974;28;11386;-43
2022/04/27 06:33:56;;;;;;;;;3.75;2.50;14.50;99.90;;;;;;5054645;28;12239;-53
2022/04/27 06:36:26;;;;;;;;;1.50;1.50;14.40;99.90;;;;;;5037937;28;12157;-53
2022/04/27 06:39:00;;;;;;;;;2.00;2.00;14.40;99.90;;;;;;5056387;28;11438;-43
2022/04/27 06:41:32;;;;;;;;;5.25;5.25;14.40;99.90;;;;;;5043494;28;11393;-47
2022/04/27 06:44:22;;;;;;;;;3.00;3.00;14.40;99.90;;;;;;5073374;28;11379;-51
2022/04/27 06:47:10;;;;;;;;;3.00;3.00;14.30;99.90;;;;;;5074722;28;11403;-53
2022/04/27 06:50:16;;;;;;;;;4.00;2.75;14.30;99.90;;;;;;5039371;28;11384;-52
2022/04/27 06:53:06;;;;;;;;;3.50;3.50;14.30;99.90;;;;;;5071112;28;11406;-52
2022/04/27 06:55:56;;;;;;;;;4.00;2.00;14.30;99.90;;;;;;5072056;28;11387;-51
2022/04/27 06:58:44;;;;;;;;;2.25;2.00;14.30;99.90;;;;;;5070901;28;11391;-51
2022/04/27 07:01:21;;;;;;;;;2.25;2.25;14.20;99.90;;;;;;5048243;28;11383;-53
2022/04/27 07:03:55;;;;;;;;;3.00;3.00;14.20;99.90;;;;;;5071142;28;12229;-53
2022/04/27 07:06:25;;;;;;;;;4.25;3.00;14.20;99.90;;;;;;5047561;28;11406;-53
2022/04/27 07:08:55;;;;;;;;;3.25;2.75;14.20;99.90;;;;;;5066018;28;11392;-49
2022/04/27 07:11:27;;;;;;;;;2.25;2.25;14.20;99.90;;;;;;5065628;28;11433;-51
2022/04/27 07:13:59;;;;;;;;;3.00;2.00;14.20;99.90;;;;;;5064750;28;12879;-53
2022/04/27 07:16:31;;;;;;;;;4.25;4.25;14.20;99.90;;;;;;5069609;28;12175;-53
2022/04/27 07:19:01;;;;;;;;;4.25;3.75;14.20;99.90;;;;;;5063002;28;11398;-51
2022/04/27 07:21:32;;;;;;;;;3.50;2.50;14.10;99.90;;;;;;5064633;28;11408;-50
2022/04/27 07:24:03;;;;;;;;;1.75;1.75;14.10;99.90;;;;;;5070349;28;11415;-45
2022/04/27 07:26:34;;;;;;;;;3.00;3.00;14.10;99.90;;;;;;5058874;28;11657;-44
2022/04/27 07:29:08;;;;;;;;;2.00;2.00;14.10;99.90;;;;;;5064400;28;11575;-52
2022/04/27 07:31:39;;;;;;;;;3.25;3.25;14.10;99.90;;;;;;5069006;28;11384;-52
2022/04/27 07:34:11;;;;;;;;;2.50;2.50;14.00;99.90;;;;;;5066062;28;12276;-52
2022/04/27 07:36:41;;;;;;;;;3.75;3.75;14.00;99.90;;;;;;5061413;28;11441;-51
2022/04/27 07:39:12;;;;;;;;;2.00;2.00;14.00;99.90;;;;;;5072977;28;11484;-53
2022/04/27 07:41:45;;;;;;;;;5.00;2.25;14.00;99.90;;;;;;5060298;28;11434;-51
2022/04/27 07:44:14;;;;;;;;;2.00;2.00;14.00;99.90;;;;;;5068454;28;11407;-44
2022/04/27 07:46:49;;;;;;;;;4.00;3.00;13.90;99.90;;;;;;5072487;28;11410;-44
2022/04/27 07:49:23;;;;;;;;;2.75;2.75;14.00;99.90;;;;;;5071791;28;11553;-45
2022/04/27 07:51:53;;;;;;;;;4.00;2.50;14.00;99.90;;;;;;5067074;28;11450;-44
2022/04/27 07:54:24;;;;;;;;;3.00;2.75;13.90;99.90;;;;;;5067049;28;12109;-50
2022/04/27 07:56:54;;;;;;;;;3.25;3.25;13.90;99.90;;;;;;5073069;28;11404;-52
2022/04/27 07:59:26;;;;;;;;;4.50;3.00;13.80;99.90;;;;;;5068764;28;11453;-50
2022/04/27 08:01:59;;;;;;;;;4.25;2.50;13.90;99.90;;;;;;5065999;28;11400;-48
2022/04/27 08:04:30;;;;;;;;;5.75;3.75;13.90;99.90;;;;;;5066085;28;11432;-44
2022/04/27 08:07:01;;;;;;;;;2.75;2.75;13.90;99.90;;;;;;5068896;28;11558;-43
2022/04/27 08:09:31;;;;;;;;;4.25;3.00;13.80;99.90;;;;;;5067581;28;11385;-52
2022/04/27 08:12:03;;;;;;;;;4.00;4.00;13.80;99.90;;;;;;5059111;28;11436;-50
2022/04/27 08:14:35;;;;;;;;;4.75;3.75;13.80;99.90;;;;;;5063616;28;12209;-49
2022/04/27 08:17:07;;;;;;;;;3.75;3.75;13.80;99.90;;;;;;5072069;28;11395;-53
2022/04/27 08:19:38;;;;;;;;;2.25;2.25;13.80;99.90;;;;;;5040981;28;11395;-43
2022/04/27 08:22:11;;;;;;;;;3.25;2.00;13.80;99.90;;;;;;5073929;28;11435;-45
2022/04/27 08:24:42;;;;;;;;;2.00;1.50;13.80;99.90;;;;;;5067586;28;12202;-44
2022/04/27 08:27:13;;;;;;;;;5.25;5.00;13.80;99.90;;;;;;5069387;28;11373;-46
2022/04/27 08:29:44;;;;;;;;;2.25;2.25;13.70;99.90;;;;;;5070363;28;11459;-51
2022/04/27 08:32:14;;;;;;;;;5.50;3.00;13.70;99.90;;;;;;5057083;28;11412;-52
2022/04/27 08:34:44;;;;;;;;;2.75;2.75;13.80;99.90;;;;;;5070648;28;11478;-52
2022/04/27 08:37:17;;;;;;;;;2.75;2.75;13.80;99.90;;;;;;5078289;28;11432;-48
2022/04/27 08:39:49;;;;;;;;;4.25;4.00;13.70;99.90;;;;;;5064934;28;11419;-48
2022/04/27 08:42:20;;;;;;;;;2.75;2.75;13.70;99.90;;;;;;5064288;28;11442;-51
2022/04/27 08:44:50;;;;;;;;;2.00;2.00;13.70;99.90;;;;;;5068929;28;11405;-52
2022/04/27 08:47:20;;;;;;;;;2.50;2.50;13.70;99.90;;;;;;5074310;28;11426;-51
2022/04/27 08:49:51;;;;;;;;;3.00;3.00;13.70;99.90;;;;;;5065557;28;11398;-45
2022/04/27 08:52:24;;;;;;;;;3.75;3.75;13.60;99.90;;;;;;5074705;28;11411;-44
2022/04/27 08:54:56;;;;;;;;;3.50;2.00;13.60;99.90;;;;;;5074853;28;11455;-46
2022/04/27 08:57:27;;;;;;;;;3.00;3.00;13.60;99.90;;;;;;5063952;28;11405;-45
2022/04/27 08:59:57;;;;;;;;;3.00;3.00;13.60;99.90;;;;;;5066947;28;12146;-53
2022/04/27 09:02:29;;;;;;;;;3.00;3.00;13.60;99.90;;;;;;5069138;28;11439;-52
2022/04/27 09:05:07;;;;;;;;;2.75;2.75;13.60;99.90;;;;;;5071758;28;11542;-52
2022/04/27 09:07:51;;;;;;;;;2.00;2.00;13.60;99.90;;;;;;5071585;28;11412;-51
2022/04/27 09:10:25;;;;;;;;;1.75;1.75;13.60;99.90;;;;;;5068494;28;12311;-49
2022/04/27 09:12:57;;;;;;;;;2.00;2.00;13.60;99.90;;;;;;5054747;28;11423;-52
2022/04/27 09:15:31;;;;;;;;;2.00;2.00;13.50;99.90;;;;;;5073331;28;11430;-43
2022/04/27 09:21:02;;;;;;;;;3.00;3.00;13.50;99.90;;;;;;5073306;28;11393;-52
2022/04/27 09:23:45;;;;;;;;;3.00;3.00;13.50;99.90;;;;;;5070947;28;11426;-43
2022/04/27 09:26:17;;;;;;;;;5.00;3.00;13.40;99.90;;;;;;5076175;28;12126;-44
2022/04/27 09:28:56;;;;;;;;;4.00;4.00;13.40;99.90;;;;;;5068245;28;11394;-43
2022/04/27 09:31:31;;;;;;;;;2.25;2.25;13.40;99.90;;;;;;5073288;28;11420;-45
2022/04/27 09:34:27;;;;;;;;;3.00;2.00;13.30;99.90;;;;;;5074563;28;11392;-44
2022/04/27 09:37:16;;;;;;;;;2.00;2.00;13.30;99.90;;;;;;5070018;28;11405;-45
2022/04/27 09:40:03;;;;;;;;;2.25;2.25;13.30;99.90;;;;;;5074915;28;11390;-51
2022/04/27 09:42:41;;;;;;;;;2.25;2.00;13.30;99.90;;;;;;5073358;28;11419;-53
2022/04/27 09:45:21;;;;;;;;;3.75;3.75;13.30;99.90;;;;;;5082279;22;11473;-63
2022/04/27 09:48:00;;;;;;;;;3.75;3.75;13.20;99.90;;;;;;5073722;28;11501;-63
2022/04/27 09:50:58;;;;;;;;;2.75;2.75;13.20;99.90;;;;;;5056039;28;11439;-72
2022/04/27 09:53:31;;;;;;;;;3.75;3.75;13.20;99.90;;;;;;5079322;28;11417;-71
2022/04/27 09:56:07;;;;;;;;;2.00;2.00;13.20;99.90;;;;;;5060337;28;11384;-64
2022/04/27 09:58:43;;;;;;;;;3.25;2.25;13.10;99.90;;;;;;5080193;28;11433;-64
2022/04/27 10:01:17;;;;;;;;;7.50;4.75;13.10;99.90;;;;;;5047727;28;11432;-64
2022/04/27 10:03:56;;;;;;;;;12.00;8.75;13.10;99.90;;;;;;5077898;28;11392;-64
2022/04/27 10:06:31;;;;;;;;;9.50;7.00;13.20;99.90;;;;;;5074649;28;11489;-64
2022/04/27 10:09:04;;;;;;;;;3.25;2.00;13.20;99.90;;;;;;5054330;28;11500;-72
2022/04/27 10:12:00;;;;;;;;;3.00;3.00;13.20;99.90;;;;;;5048878;28;11434;-73
2022/04/27 10:14:33;;;;;;;;;2.00;2.00;13.10;99.90;;;;;;5074436;28;11424;-64
2022/04/27 10:17:08;;;;;;;;;3.00;3.00;13.10;99.90;;;;;;5080819;28;11402;-64
2022/04/27 10:19:50;;;;;;;;;1.75;1.75;13.10;99.90;;;;;;5056181;28;12260;-64
2022/04/27 10:22:33;;;;;;;;;1.00;1.00;13.00;99.90;;;;;;5046132;28;11397;-64
2022/04/27 10:25:08;;;;;;;;;2.00;2.00;13.00;99.90;;;;;;5074913;28;11428;-71
2022/04/27 10:27:41;;;;;;;;;2.00;2.00;13.00;99.90;;;;;;5049056;28;11383;-72
2022/04/27 10:30:15;;;;;;;;;2.00;2.00;13.00;99.90;;;;;;5082177;28;12177;-64
2022/04/27 10:32:47;;;;;;;;;2.00;2.00;13.00;99.90;;;;;;5064906;28;12242;-63
2022/04/27 10:35:33;;;;;;;;;2.75;2.75;13.00;99.90;;;;;;5054671;28;11400;-63
2022/04/27 10:38:06;;;;;;;;;1.75;1.75;12.90;99.90;;;;;;5064252;28;11457;-63
2022/04/27 10:40:45;;;;;;;;;1.00;1.00;12.90;99.90;;;;;;5042252;28;11561;-64
2022/04/27 10:43:41;;;;;;;;;2.00;2.00;12.90;99.90;;;;;;5075821;28;11435;-63
2022/04/27 10:46:38;;;;;;;;;2.00;2.00;12.80;99.90;;;;;;5055428;28;11587;-71
2022/04/27 10:49:38;;;;;;;;;2.25;2.25;12.80;99.90;;;;;;5061326;28;11537;-71
2022/04/27 10:52:11;;;;;;;;;2.75;2.75;12.80;99.90;;;;;;5037555;28;11507;-71
2022/04/27 10:54:43;;;;;;;;;2.00;2.00;12.70;99.90;;;;;;5058393;28;11527;-63
2022/04/27 10:57:18;;;;;;;;;3.00;3.00;12.70;99.90;;;;;;5041967;28;11524;-63
2022/04/27 11:00:06;;;;;;;;;2.25;2.25;12.70;99.90;;;;;;5065161;28;11544;-71
2022/04/27 11:03:17;;;;;;;;;4.75;1.50;12.70;99.90;;;;;;5085990;28;11514;-72
2022/04/27 11:05:49;;;;;;;;;2.00;2.00;12.70;99.90;;;;;;5051478;28;11530;-72
2022/04/27 11:08:45;;;;;;;;;3.00;3.00;12.70;99.90;;;;;;5060752;28;11493;-73
2022/04/27 11:11:19;;;;;;;;;3.50;1.00;12.70;99.90;;;;;;5025929;28;11519;-64
2022/04/27 11:13:51;;;;;;;;;2.25;2.25;12.60;99.90;;;;;;5057500;28;11526;-71
2022/04/27 11:16:21;;;;;;;;;1.00;1.00;12.60;99.90;;;;;;5070781;28;11470;-71
2022/04/27 11:18:58;;;;;;;;;2.00;2.00;12.60;99.90;;;;;;5060371;28;11509;-71
2022/04/27 11:21:30;;;;;;;;;3.50;2.00;12.60;99.90;;;;;;5054169;28;11494;-71
2022/04/27 11:24:07;;;;;;;;;3.75;2.75;12.50;99.90;;;;;;5054938;28;11497;-72
2022/04/27 11:26:46;;;;;;;;;2.75;2.75;12.50;99.90;;;;;;5034202;28;11543;-72
2022/04/27 11:29:19;;;;;;;;;3.00;3.00;12.50;99.90;;;;;;5056841;28;11515;-71
2022/04/27 11:31:50;;;;;;;;;1.00;1.00;12.50;99.90;;;;;;5055631;28;12221;-71
2022/04/27 11:34:27;;;;;;;;;1.75;1.50;12.40;99.90;;;;;;5052266;28;11543;-64
2022/04/27 11:37:15;;;;;;;;;1.00;1.00;12.40;99.90;;;;;;5052078;28;11523;-63
2022/04/27 11:39:49;;;;;;;;;2.50;2.25;12.40;99.90;;;;;;5055578;28;11517;-64
2022/04/27 11:42:25;;;;;;;;;1.50;1.50;12.30;99.90;;;;;;5051798;28;12459;-64
2022/04/27 11:45:00;;;;;;;;;1.50;1.50;12.30;99.90;;;;;;5025244;28;11538;-64
2022/04/27 11:47:36;;;;;;;;;2.50;2.50;12.30;99.90;;;;;;5037990;28;11522;-64
2022/04/27 11:50:07;;;;;;;;;1.50;1.50;12.30;99.90;;;;;;5020798;28;11508;-64
2022/04/27 11:52:38;;;;;;;;;4.50;2.75;12.30;99.90;;;;;;5031625;28;11520;-64
2022/04/27 11:55:15;;;;;;;;;5.00;2.50;12.20;99.90;;;;;;5031976;28;11521;-64
2022/04/27 11:57:46;;;;;;;;;2.00;2.00;12.20;99.90;;;;;;5031036;28;11513;-64
2022/04/27 12:00:23;;;;;;;;;2.50;2.50;12.10;99.90;;;;;;5017789;28;11536;-72
2022/04/27 12:03:06;;;;;;;;;0.25;0.00;12.20;99.90;;;;;;5031875;28;11535;-72
2022/04/27 12:05:39;;;;;;;;;2.00;2.00;12.10;99.90;;;;;;5033205;28;11564;-72
2022/04/27 12:08:21;;;;;;;;;2.00;1.25;12.10;99.90;;;;;;5041903;28;11513;-71
2022/04/27 12:10:51;;;;;;;;;3.00;3.00;12.10;99.90;;;;;;5033204;28;11538;-64
2022/04/27 12:13:24;;;;;;;;;1.75;1.75;12.10;99.90;;;;;;5033547;28;11487;-64
2022/04/27 12:15:58;;;;;;;;;1.00;1.00;12.10;99.90;;;;;;5038304;28;11543;-63
2022/04/27 12:18:32;;;;;;;;;2.25;2.25;12.10;99.90;;;;;;5037900;28;11573;-63
2022/04/27 12:21:25;;;;;;;;;5.00;2.50;12.00;99.90;;;;;;5034613;28;11520;-71
2022/04/27 12:23:56;;;;;;;;;2.00;2.00;12.00;99.90;;;;;;5034344;28;11520;-72
2022/04/27 12:26:41;;;;;;;;;2.00;2.00;12.00;99.90;;;;;;5020601;28;11517;-71
2022/04/27 12:29:13;;;;;;;;;1.75;1.75;12.00;99.90;;;;;;5045690;28;10969;-65
2022/04/27 12:31:44;;;;;;;;;2.00;2.00;12.00;99.90;;;;;;5032069;28;11562;-64
2022/04/27 12:40:13;;;;;;;;;2.50;1.75;12.00;99.90;;;;;;5042862;28;11541;-74
2022/04/27 12:43:07;;;;;;;;;0.75;0.75;12.00;99.90;;;;;;5033753;28;11510;-72
2022/04/27 12:45:39;;;;;;;;;2.00;2.00;12.00;99.90;;;;;;5069461;28;11573;-64
2022/04/27 12:48:31;;;;;;;;;3.25;2.00;12.10;99.90;;;;;;5072847;28;11449;-65
2022/04/27 12:51:04;;;;;;;;;3.00;3.00;12.00;99.90;;;;;;5061000;28;11461;-64
2022/04/27 12:53:35;;;;;;;;;3.00;3.00;12.00;99.90;;;;;;5080502;28;11508;-65
2022/04/27 12:56:09;;;;;;;;;4.00;4.00;11.90;99.90;;;;;;5058434;28;11472;-72
2022/04/27 12:58:40;;;;;;;;;3.50;3.50;11.90;99.90;;;;;;5078107;28;12187;-71
2022/04/27 13:01:28;;;;;;;;;3.00;3.00;11.90;99.90;;;;;;5083014;28;11466;-73
2022/04/27 13:04:01;;;;;;;;;3.00;3.00;11.80;99.90;;;;;;5073171;28;11511;-73
2022/04/27 13:06:33;;;;;;;;;2.25;2.25;11.80;99.90;;;;;;5058078;28;11529;-73
2022/04/27 13:11:55;;;;;;;;;8.50;3.25;11.80;99.90;;;;;;5061645;28;11434;-72
2022/04/27 13:14:28;;;;;;;;;4.75;4.75;11.80;99.90;;;;;;5061632;28;11495;-71
2022/04/27 13:16:59;;;;;;;;;5.00;5.00;11.80;99.90;;;;;;5046381;28;11495;-73
2022/04/27 13:19:31;;;;;;;;;5.75;5.75;11.80;99.90;;;;;;5053956;28;12044;-64
2022/04/27 13:22:03;;;;;;;;;3.00;3.00;11.80;99.90;;;;;;5056418;28;11528;-64
2022/04/27 13:24:34;;;;;;;;;6.75;6.75;11.80;99.90;;;;;;5078383;28;11499;-72
2022/04/27 13:27:24;;;;;;;;;6.00;6.00;11.80;99.90;;;;;;5070167;28;11531;-72
2022/04/27 13:29:56;;;;;;;;;5.25;5.25;11.70;99.90;;;;;;5047763;28;11501;-64
2022/04/27 13:32:28;;;;;;;;;6.00;4.50;11.70;99.90;;;;;;5076250;28;11445;-65
2022/04/27 13:34:58;;;;;;;;;4.00;4.00;11.60;99.90;;;;;;5074994;28;11466;-64
2022/04/27 13:37:29;;;;;;;;;4.75;4.75;11.60;99.90;;;;;;5059034;28;11455;-64
2022/04/27 13:40:02;;;;;;;;;3.00;3.00;11.60;99.90;;;;;;5069631;28;11478;-64
2022/04/27 13:42:37;;;;;;;;;3.75;3.75;11.60;99.90;;;;;;5062211;28;11445;-65
2022/04/27 13:45:11;;;;;;;;;3.00;3.00;11.60;99.90;;;;;;5054503;28;11466;-64
2022/04/27 13:47:43;;;;;;;;;5.00;5.00;11.60;99.90;;;;;;5057661;28;11495;-63
2022/04/27 13:50:15;;;;;;;;;4.75;4.75;11.60;99.90;;;;;;5051911;28;11490;-64
2022/04/27 13:52:52;;;;;;;;;5.25;5.25;11.50;99.90;;;;;;5059929;28;11459;-64
2022/04/27 13:55:23;;;;;;;;;4.00;4.00;11.50;99.90;;;;;;5073403;28;12262;-71
2022/04/27 13:57:56;;;;;;;;;3.75;3.75;11.50;99.90;;;;;;5079382;28;11454;-69